Hovedside
METAR-TAF:

METAR-TAF

Lufthavner :

Şırnak, Tyrkia

breddegrad: 37-21-50N, lengdegrad: 42-03-36E, høyde over havet: 621 m

Gjeldene værobservasjon

Denne rapporten ble laget for 1 time og 5 minutter siden, klokken 09:50 UTC
Vind 5 kt fra Nordvest, skiftende mellom Vest og Nord
Temperatur 24°C
Luftfuktighet 29%
Trykk 1014 hPa
Sikt 10 km eller mer
Få skyer i en høyde av 4000 ft

METAR: LTCV 250950Z 31005KT 260V360 9999 FEW040 24/05 Q1014

Tid: 13:55 (10:55 UTC)

Varsel

Denne rapporten ble laget for 6 timer og 15 minutter siden, klokken 04:40 UTC
Varsel gyldig fra 25. klokken 06 UTC til 26. klokken 06 UTC
Vind 10 kt fra Vest
Sikt 10 km eller mer
ingen skyer under 1500 m og ingen bygeskyer
Blir
fra 25. klokken 09 UTC til 25. klokken 11 UTC
Få skyer i en høyde av 4000 ft
Blir
fra 25. klokken 14 UTC til 25. klokken 16 UTC
Sikt 10 km eller mer
ingen skyer under 1500 m og ingen bygeskyer

TAF: LTCV 250440Z 2506/2606 28010KT CAVOK BECMG 2509/2511 FEW040 BECMG 2514/2516 CAVOK

Værobservasjoner og værvarsel for over 4000 flyplasser (METAR- og TAF-rapporter).

Tilgjengelige stasjoner er representert av de røde og gule prikkene på kartet.

Hold musepekeren over prikken for å se navnet på stasjonen.

Klikk så for å se værobservasjoner og -varsler.

For å forandre kartet kan du klikke på den grønne knappen med svart kryss for å zoome inn, på den grønne knappen med strek for å zoome ut, eller på de grønne pilene for å se tilstøtende kart.


METAR-TAF: